Time;durP1;ratioP1;P1;durP2;ratioP2;P2;SDS_P1;SDS_P2;PMS_P1;PMS_P2;Temp;Humidity;BMP_temperature;BMP_pressure;BME280_temperature;BME280_humidity;BME280_pressure;Samples;Min_cycle;Max_cycle;Signal;HPM_P1;HPM_P2
2020/12/26 01:14:08;;;;;;;15.43;11.63;;;-0.20;99.90;;;;;;508741;27;20761;-90
2020/12/26 01:16:58;;;;;;;14.57;9.70;;;-0.40;99.90;;;;;;4827837;29;20491;-90
2020/12/26 01:22:01;;;;;;;11.50;9.50;;;-0.30;99.90;;;;;;4827177;29;20471;-90
2020/12/26 01:24:38;;;;;;;11.80;8.63;;;-0.30;99.90;;;;;;4821125;29;20510;-92
2020/12/26 01:27:04;;;;;;;13.17;9.53;;;-0.40;99.90;;;;;;4827795;29;20699;-92
2020/12/26 01:29:29;;;;;;;13.43;9.40;;;-0.50;99.90;;;;;;4828009;29;20477;-89
2020/12/26 01:31:55;;;;;;;12.23;9.40;;;-0.50;99.90;;;;;;4830173;29;20191;-88
2020/12/26 01:34:21;;;;;;;13.47;9.90;;;-0.50;99.90;;;;;;4832183;29;20279;-88
2020/12/26 01:36:56;;;;;;;10.63;9.53;;;-0.50;99.90;;;;;;4825346;29;20689;-88
2020/12/26 01:39:35;;;;;;;12.50;9.20;;;-0.60;99.90;;;;;;4823482;29;20448;-87
2020/12/26 01:42:01;;;;;;;11.40;8.93;;;-0.60;99.90;;;;;;4825809;29;20802;-89
2020/12/26 01:44:26;;;;;;;11.53;9.67;;;-0.70;99.90;;;;;;4825031;29;20553;-88
2020/12/26 01:46:52;;;;;;;12.60;10.37;;;-0.60;99.90;;;;;;4823980;29;20310;-88
2020/12/26 01:49:21;;;;;;;19.63;11.20;;;-0.60;99.90;;;;;;4825261;29;20837;-88
2020/12/26 01:51:47;;;;;;;11.83;9.10;;;-0.60;99.90;;;;;;4822914;29;20448;-88
2020/12/26 01:54:13;;;;;;;12.57;9.50;;;-0.60;99.90;;;;;;4823962;29;20459;-87
2020/12/26 01:56:40;;;;;;;12.87;9.47;;;-0.50;99.90;;;;;;4824515;29;20487;-87
2020/12/26 01:59:07;;;;;;;13.97;9.73;;;-0.50;99.90;;;;;;4824441;29;20524;-87
2020/12/26 02:01:35;;;;;;;10.47;8.83;;;-0.40;99.90;;;;;;4841848;29;20857;-89
2020/12/26 02:04:31;;;;;;;14.33;9.50;;;-0.50;99.90;;;;;;4824920;29;21002;-90
2020/12/26 02:07:02;;;;;;;13.60;8.80;;;-0.40;99.90;;;;;;4825608;29;20539;-90
2020/12/26 02:09:28;;;;;;;12.83;10.27;;;-0.40;99.90;;;;;;4823625;29;20513;-90
2020/12/26 02:11:53;;;;;;;14.37;9.80;;;-0.40;99.90;;;;;;4823675;29;20532;-90
2020/12/26 02:14:19;;;;;;;14.87;9.43;;;-0.30;99.90;;;;;;4826229;29;20472;-90
2020/12/26 02:16:46;;;;;;;14.03;9.37;;;-0.30;99.90;;;;;;4824530;29;20199;-89
2020/12/26 02:19:13;;;;;;;13.73;8.50;;;-0.30;99.90;;;;;;4836045;29;20198;-90
2020/12/26 02:21:40;;;;;;;13.30;8.80;;;-0.30;99.90;;;;;;4825762;29;20511;-90
2020/12/26 02:24:06;;;;;;;11.30;9.17;;;-0.30;99.90;;;;;;4826103;29;20534;-89
2020/12/26 02:26:32;;;;;;;12.03;8.73;;;-0.30;99.90;;;;;;4824973;29;20448;-88
2020/12/26 02:28:58;;;;;;;12.40;8.23;;;-0.30;99.90;;;;;;4824762;29;20464;-89
2020/12/26 02:31:24;;;;;;;13.77;9.50;;;-0.20;99.90;;;;;;4825263;29;20228;-89
2020/12/26 02:33:50;;;;;;;12.07;10.07;;;-0.10;99.90;;;;;;4827560;29;20198;-88
2020/12/26 02:36:16;;;;;;;13.93;9.00;;;0.00;99.90;;;;;;4831476;29;20482;-89
2020/12/26 02:38:42;;;;;;;12.83;9.20;;;0.10;99.90;;;;;;4822490;29;20515;-88
2020/12/26 02:41:08;;;;;;;9.80;8.60;;;0.20;99.90;;;;;;4823802;29;20983;-89
2020/12/26 02:43:33;;;;;;;18.00;8.60;;;0.20;99.90;;;;;;4826157;29;20219;-88
2020/12/26 02:46:00;;;;;;;8.93;8.03;;;0.20;99.90;;;;;;4820873;29;20653;-88
2020/12/26 02:48:26;;;;;;;10.10;7.97;;;0.20;99.90;;;;;;4824164;29;20207;-88
2020/12/26 02:50:52;;;;;;;11.37;7.70;;;0.40;99.90;;;;;;4824929;29;20464;-88
2020/12/26 02:53:18;;;;;;;12.23;9.30;;;0.40;99.90;;;;;;4826501;29;20486;-89
2020/12/26 02:55:43;;;;;;;15.13;9.53;;;0.40;99.90;;;;;;4823222;29;20462;-89
2020/12/26 02:58:09;;;;;;;11.00;8.77;;;0.40;99.90;;;;;;4820964;29;20433;-89
2020/12/26 03:00:35;;;;;;;12.80;9.53;;;0.30;99.90;;;;;;4822187;29;20211;-89
2020/12/26 03:03:00;;;;;;;12.20;8.87;;;0.30;99.90;;;;;;4824546;29;20230;-89
2020/12/26 03:05:26;;;;;;;16.80;9.77;;;0.30;99.90;;;;;;4822718;29;20282;-88
2020/12/26 03:07:52;;;;;;;9.97;8.50;;;0.20;99.90;;;;;;4822319;29;20210;-88
2020/12/26 03:10:18;;;;;;;15.73;9.57;;;0.30;99.90;;;;;;4825686;29;20226;-88
2020/12/26 03:12:44;;;;;;;14.03;9.20;;;0.30;99.90;;;;;;4827254;29;21009;-89
2020/12/26 03:15:10;;;;;;;15.83;9.40;;;0.40;99.90;;;;;;4824273;29;20476;-89
2020/12/26 03:17:36;;;;;;;13.90;9.83;;;0.40;99.90;;;;;;4822590;29;20547;-88
2020/12/26 03:20:03;;;;;;;14.50;9.63;;;0.40;99.90;;;;;;4822201;29;20195;-88
2020/12/26 03:22:28;;;;;;;16.37;9.10;;;0.50;99.90;;;;;;4824251;29;20448;-88
2020/12/26 03:24:55;;;;;;;13.20;9.27;;;0.50;99.90;;;;;;4824898;29;20483;-89
2020/12/26 03:27:22;;;;;;;12.10;9.40;;;0.60;99.90;;;;;;4825262;29;20539;-90
2020/12/26 03:29:48;;;;;;;13.23;9.30;;;0.60;99.90;;;;;;4822746;29;20460;-89
2020/12/26 03:32:14;;;;;;;14.90;10.20;;;0.50;99.90;;;;;;4822443;29;20664;-88
2020/12/26 03:34:40;;;;;;;11.80;9.33;;;0.50;99.90;;;;;;4823249;29;20538;-88
2020/12/26 03:37:06;;;;;;;14.23;9.40;;;0.60;99.90;;;;;;4825083;29;20215;-88
2020/12/26 03:39:38;;;;;;;10.93;9.33;;;0.60;99.90;;;;;;4824148;29;20195;-88
2020/12/26 03:42:04;;;;;;;12.70;9.93;;;0.60;99.90;;;;;;4824167;29;21699;-88
2020/12/26 03:44:30;;;;;;;13.23;8.70;;;0.60;99.90;;;;;;4824261;29;20930;-88
2020/12/26 03:46:58;;;;;;;15.37;9.07;;;0.60;99.90;;;;;;4825415;29;20454;-88
2020/12/26 03:49:25;;;;;;;14.83;8.87;;;0.60;99.90;;;;;;4822150;29;20204;-88
2020/12/26 03:51:51;;;;;;;11.47;7.97;;;0.60;99.90;;;;;;4823634;29;20467;-88
2020/12/26 03:54:17;;;;;;;12.50;9.10;;;0.60;99.90;;;;;;4823758;29;20506;-89
2020/12/26 03:56:43;;;;;;;16.30;10.33;;;0.50;99.90;;;;;;4824973;29;20508;-88
2020/12/26 03:59:10;;;;;;;14.60;9.33;;;0.50;99.90;;;;;;4827684;29;20546;-88
2020/12/26 04:01:36;;;;;;;13.67;9.30;;;0.50;99.90;;;;;;4821913;29;20503;-89
2020/12/26 04:04:03;;;;;;;14.40;10.00;;;0.50;99.90;;;;;;4821765;29;20515;-88
2020/12/26 04:06:28;;;;;;;13.97;9.67;;;0.50;99.90;;;;;;4822083;29;20823;-89
2020/12/26 04:08:54;;;;;;;12.53;9.57;;;0.50;99.90;;;;;;4821753;29;20456;-88
2020/12/26 04:11:20;;;;;;;22.50;13.03;;;0.60;99.90;;;;;;4823779;29;20211;-90
2020/12/26 04:13:46;;;;;;;20.57;14.00;;;0.60;99.90;;;;;;4827813;29;20925;-90
2020/12/26 04:16:12;;;;;;;16.50;10.60;;;0.60;99.90;;;;;;4825264;29;20210;-89
2020/12/26 04:18:38;;;;;;;20.00;11.10;;;0.60;99.90;;;;;;4827503;29;20246;-89
2020/12/26 04:21:04;;;;;;;16.40;10.30;;;0.50;99.90;;;;;;4826538;29;20844;-89
2020/12/26 04:23:33;;;;;;;14.20;9.87;;;0.50;99.90;;;;;;4831735;29;20503;-89
2020/12/26 04:25:59;;;;;;;15.40;9.60;;;0.60;99.90;;;;;;4827883;29;20624;-89
2020/12/26 04:28:25;;;;;;;15.40;10.17;;;0.50;99.90;;;;;;4827395;29;20474;-89
2020/12/26 04:30:51;;;;;;;15.07;10.47;;;0.60;99.90;;;;;;4825854;29;21398;-89
2020/12/26 04:33:17;;;;;;;15.50;9.50;;;0.70;99.90;;;;;;4827156;29;20221;-89
2020/12/26 04:35:42;;;;;;;17.83;9.60;;;0.70;99.90;;;;;;4827589;29;23540;-88
2020/12/26 04:38:08;;;;;;;15.63;10.17;;;0.60;99.90;;;;;;4829237;29;20569;-88
2020/12/26 04:40:36;;;;;;;13.90;10.60;;;0.60;99.90;;;;;;4826865;29;20298;-88
2020/12/26 04:43:02;;;;;;;13.53;9.57;;;0.60;99.90;;;;;;4824723;29;20757;-88
2020/12/26 04:45:29;;;;;;;15.60;10.03;;;0.60;99.90;;;;;;4826141;29;20470;-88
2020/12/26 04:48:01;;;;;;;16.47;10.30;;;0.50;99.90;;;;;;4825571;29;20214;-88
2020/12/26 04:50:33;;;;;;;16.33;10.10;;;0.50;99.90;;;;;;4828503;29;20447;-88
2020/12/26 04:53:03;;;;;;;14.57;10.20;;;0.40;99.90;;;;;;4826141;29;20559;-88
2020/12/26 04:55:34;;;;;;;14.80;9.90;;;0.40;99.90;;;;;;4830546;29;20488;-87
2020/12/26 04:58:11;;;;;;;16.10;10.50;;;0.40;99.90;;;;;;4826860;29;20497;-88
2020/12/26 05:00:38;;;;;;;15.03;10.00;;;0.40;99.90;;;;;;4824736;29;20565;-88
2020/12/26 05:03:05;;;;;;;13.53;10.00;;;0.40;99.90;;;;;;4826259;29;20502;-87
2020/12/26 05:05:40;;;;;;;12.20;10.23;;;0.40;99.90;;;;;;4826492;29;21076;-88
2020/12/26 05:08:13;;;;;;;12.17;10.00;;;0.40;99.90;;;;;;4826482;29;20517;-88
2020/12/26 05:10:41;;;;;;;13.70;10.03;;;0.40;99.90;;;;;;4826258;29;20800;-88
2020/12/26 05:13:10;;;;;;;14.37;10.90;;;0.40;99.90;;;;;;4831063;29;20807;-87
2020/12/26 05:15:36;;;;;;;15.70;10.80;;;0.40;99.90;;;;;;4827568;29;20940;-87
2020/12/26 05:18:03;;;;;;;12.00;9.10;;;0.40;99.90;;;;;;4841816;29;20548;-87
2020/12/26 05:20:29;;;;;;;14.23;9.67;;;0.50;99.90;;;;;;4823723;29;20206;-88
2020/12/26 05:23:13;;;;;;;12.67;9.97;;;0.50;99.90;;;;;;4827516;29;20480;-89
2020/12/26 05:25:44;;;;;;;11.20;9.40;;;0.40;99.90;;;;;;4826715;29;20452;-88
2020/12/26 05:28:14;;;;;;;13.50;10.27;;;0.40;99.90;;;;;;4824008;29;20522;-89
2020/12/26 05:30:45;;;;;;;14.93;9.73;;;0.40;99.90;;;;;;4825854;29;20547;-89
2020/12/26 05:33:17;;;;;;;13.27;9.30;;;0.30;99.90;;;;;;4828521;29;20452;-89
2020/12/26 05:35:48;;;;;;;14.43;9.03;;;0.30;99.90;;;;;;4826229;29;20558;-89
2020/12/26 05:38:17;;;;;;;14.17;10.30;;;0.30;99.90;;;;;;4824070;29;20498;-89
2020/12/26 05:40:47;;;;;;;15.33;10.17;;;0.30;99.90;;;;;;4827778;29;20464;-89
2020/12/26 05:43:19;;;;;;;13.37;9.83;;;0.30;99.90;;;;;;4826291;29;20492;-90
2020/12/26 05:45:45;;;;;;;12.47;9.70;;;0.30;99.90;;;;;;4823001;29;20453;-89
2020/12/26 05:48:16;;;;;;;17.90;9.80;;;0.30;99.90;;;;;;4840082;29;20458;-89
2020/12/26 05:50:43;;;;;;;12.80;9.50;;;0.40;99.90;;;;;;4825393;29;20481;-88
2020/12/26 05:53:12;;;;;;;11.83;8.40;;;0.30;99.90;;;;;;4823040;29;20464;-88
2020/12/26 05:55:40;;;;;;;14.17;10.53;;;0.30;99.90;;;;;;4823300;29;20498;-88
2020/12/26 05:58:08;;;;;;;13.73;10.60;;;0.30;99.90;;;;;;4821482;29;20492;-89
2020/12/26 06:03:25;;;;;;;11.53;9.77;;;0.20;99.90;;;;;;4825990;29;20654;-88
2020/12/26 06:05:57;;;;;;;16.50;9.63;;;0.30;99.90;;;;;;4825072;29;20460;-90
2020/12/26 06:08:30;;;;;;;12.90;9.80;;;0.30;99.90;;;;;;4824435;29;20460;-90
2020/12/26 06:11:00;;;;;;;16.93;10.47;;;0.30;99.90;;;;;;4825388;29;20499;-90
2020/12/26 06:13:28;;;;;;;15.40;10.70;;;0.30;99.90;;;;;;4824179;29;20460;-89
2020/12/26 06:16:21;;;;;;;13.57;9.87;;;0.40;99.90;;;;;;4824181;29;20480;-89
2020/12/26 06:18:56;;;;;;;13.63;9.20;;;0.30;99.90;;;;;;4825184;29;20452;-89
2020/12/26 06:21:23;;;;;;;14.20;8.77;;;0.20;99.90;;;;;;4822508;29;20467;-89
2020/12/26 06:23:50;;;;;;;16.47;9.37;;;0.10;99.90;;;;;;4824732;29;21130;-89
2020/12/26 06:26:20;;;;;;;11.70;9.00;;;0.10;99.90;;;;;;4836332;29;20456;-89
2020/12/26 06:28:46;;;;;;;13.97;10.40;;;0.00;99.90;;;;;;4824772;29;20881;-88
2020/12/26 06:31:15;;;;;;;15.97;10.60;;;-0.10;99.90;;;;;;4826261;29;20468;-89
2020/12/26 06:33:44;;;;;;;13.60;9.50;;;-0.10;99.90;;;;;;4824436;29;20449;-89
2020/12/26 06:36:12;;;;;;;11.20;9.07;;;0.00;99.90;;;;;;4823534;29;20475;-89
2020/12/26 06:38:39;;;;;;;14.20;9.90;;;0.10;99.90;;;;;;4823452;29;20475;-89
2020/12/26 06:41:15;;;;;;;16.07;10.03;;;0.10;99.90;;;;;;4823922;29;20535;-86
2020/12/26 06:43:46;;;;;;;13.20;9.63;;;0.10;99.90;;;;;;4824228;29;20571;-89
2020/12/26 06:46:14;;;;;;;13.80;9.50;;;0.10;99.90;;;;;;4824402;29;20656;-91
2020/12/26 06:49:01;;;;;;;11.07;8.60;;;0.00;99.90;;;;;;4827529;29;20467;-91
2020/12/26 06:51:27;;;;;;;15.43;10.30;;;-0.10;99.90;;;;;;4824428;29;20452;-89
2020/12/26 06:53:58;;;;;;;16.23;10.20;;;-0.10;99.90;;;;;;4823181;29;20451;-88
2020/12/26 06:56:35;;;;;;;14.20;8.80;;;-0.10;99.90;;;;;;4820376;29;20460;-88
2020/12/26 06:59:06;;;;;;;13.17;9.60;;;-0.20;99.90;;;;;;4821075;29;21833;-88
2020/12/26 07:01:33;;;;;;;15.50;10.47;;;-0.30;99.90;;;;;;4821239;29;20521;-90
2020/12/26 07:04:25;;;;;;;13.70;9.57;;;-0.30;99.90;;;;;;4824369;29;20495;-89
2020/12/26 07:06:56;;;;;;;12.37;9.07;;;-0.20;99.90;;;;;;4816966;29;20469;-89
2020/12/26 07:09:44;;;;;;;17.47;10.70;;;-0.30;99.90;;;;;;4823770;29;20591;-91
2020/12/26 07:12:14;;;;;;;18.33;11.90;;;-0.20;99.90;;;;;;4824634;29;20542;-90
2020/12/26 07:14:44;;;;;;;13.40;10.60;;;-0.20;99.90;;;;;;4840083;29;20502;-90
2020/12/26 07:17:12;;;;;;;12.40;9.40;;;-0.10;99.90;;;;;;4823398;29;20517;-92
2020/12/26 07:19:48;;;;;;;16.83;11.50;;;-0.10;99.90;;;;;;4824877;29;20515;-90
2020/12/26 07:22:21;;;;;;;13.00;9.10;;;-0.10;99.90;;;;;;4824355;29;20456;-89
2020/12/26 07:24:50;;;;;;;14.70;9.20;;;-0.10;99.90;;;;;;4821339;29;20539;-89
2020/12/26 07:27:32;;;;;;;68.17;49.27;;;-0.10;99.90;;;;;;4823426;29;20494;-88
2020/12/26 07:30:07;;;;;;;28.30;21.77;;;0.00;99.90;;;;;;4840709;29;20791;-89
2020/12/26 07:32:36;;;;;;;13.70;9.93;;;0.00;99.90;;;;;;4825636;29;20463;-87
2020/12/26 07:35:29;;;;;;;38.10;27.23;;;0.00;99.90;;;;;;4824546;29;20520;-86
2020/12/26 07:38:14;;;;;;;16.77;10.37;;;0.00;99.90;;;;;;4824473;29;20966;-86
2020/12/26 07:40:47;;;;;;;14.97;9.40;;;0.10;99.90;;;;;;4824948;29;20456;-86
2020/12/26 07:43:15;;;;;;;13.63;10.30;;;0.10;99.90;;;;;;4824377;29;20577;-87
2020/12/26 07:45:48;;;;;;;17.07;10.33;;;0.10;99.90;;;;;;4816448;29;20451;-86
2020/12/26 07:48:14;;;;;;;18.13;11.90;;;0.10;99.90;;;;;;4825009;29;20795;-85
2020/12/26 07:50:41;;;;;;;14.03;10.17;;;0.20;99.90;;;;;;4821519;29;20456;-86
2020/12/26 07:53:09;;;;;;;17.60;12.10;;;0.20;99.90;;;;;;4826461;29;20287;-88
2020/12/26 07:55:36;;;;;;;13.47;9.00;;;0.20;99.90;;;;;;4828241;29;20559;-88
2020/12/26 07:58:11;;;;;;;13.37;9.50;;;0.30;99.90;;;;;;4825620;29;20745;-89
2020/12/26 08:00:39;;;;;;;12.50;10.30;;;0.30;99.90;;;;;;4830177;29;21048;-91
2020/12/26 08:03:08;;;;;;;14.77;10.90;;;0.40;99.90;;;;;;4827562;29;20478;-91
2020/12/26 08:05:36;;;;;;;16.03;12.33;;;0.50;99.90;;;;;;4825837;29;20491;-94
2020/12/26 08:08:23;;;;;;;15.20;12.07;;;0.50;99.90;;;;;;4822454;29;20985;-93
2020/12/26 08:10:57;;;;;;;16.80;13.43;;;0.50;99.90;;;;;;4826723;29;20939;-93
2020/12/26 08:13:23;;;;;;;17.00;13.37;;;0.50;99.90;;;;;;4825245;29;20547;-93
2020/12/26 08:15:49;;;;;;;16.03;11.57;;;0.60;99.90;;;;;;4822677;29;20470;-93
2020/12/26 08:18:21;;;;;;;14.33;11.30;;;0.70;99.90;;;;;;4825499;29;20583;-95
2020/12/26 08:21:02;;;;;;;17.30;11.60;;;0.70;99.90;;;;;;4841007;29;20466;-96
2020/12/26 08:23:27;;;;;;;15.83;11.00;;;0.80;99.90;;;;;;4808909;29;20506;-92
2020/12/26 08:26:01;;;;;;;14.33;10.60;;;0.90;99.90;;;;;;4826875;29;20452;-92
2020/12/26 08:28:27;;;;;;;15.73;10.10;;;1.00;99.90;;;;;;4824956;29;20241;-93
2020/12/26 08:30:55;;;;;;;14.13;10.13;;;1.00;99.90;;;;;;4827037;29;20468;-93
2020/12/26 08:33:45;;;;;;;16.43;11.40;;;1.10;99.90;;;;;;4826215;29;20563;-91
2020/12/26 08:36:28;;;;;;;13.37;9.40;;;1.40;99.90;;;;;;4825349;29;20622;-92
2020/12/26 08:39:00;;;;;;;9.90;8.40;;;2.00;99.90;;;;;;4823204;29;20474;-94
2020/12/26 08:41:27;;;;;;;12.07;10.10;;;2.40;99.90;;;;;;4820830;29;20487;-92
2020/12/26 08:43:54;;;;;;;13.63;10.17;;;2.60;99.90;;;;;;4824855;29;20906;-91
2020/12/26 08:46:25;;;;;;;14.00;9.67;;;2.70;99.90;;;;;;4823781;29;20466;-94
2020/12/26 08:48:52;;;;;;;12.00;9.67;;;2.60;99.90;;;;;;4822558;29;20471;-93
2020/12/26 08:51:23;;;;;;;13.87;10.20;;;2.40;99.90;;;;;;4823347;29;20479;-93
2020/12/26 08:53:50;;;;;;;12.30;9.30;;;2.40;99.90;;;;;;4821267;29;20466;-92
2020/12/26 08:56:38;;;;;;;12.43;8.97;;;2.40;99.90;;;;;;4824207;29;20443;-94
2020/12/26 08:59:05;;;;;;;12.50;9.13;;;2.30;99.90;;;;;;4821126;29;20451;-93
2020/12/26 09:01:33;;;;;;;10.63;7.60;;;2.30;99.90;;;;;;4835893;29;20792;-93
2020/12/26 09:04:15;;;;;;;10.50;9.10;;;2.30;99.90;;;;;;4821009;29;20483;-90
2020/12/26 09:06:42;;;;;;;11.33;8.20;;;2.40;99.90;;;;;;4817970;29;20518;-90
2020/12/26 09:09:20;;;;;;;11.63;8.90;;;2.60;99.90;;;;;;4822316;29;20478;-91
2020/12/26 09:11:48;;;;;;;12.53;8.83;;;2.80;99.90;;;;;;4819536;29;20467;-93
2020/12/26 09:14:21;;;;;;;11.20;8.00;;;2.70;99.90;;;;;;4822236;29;20460;-91
2020/12/26 09:16:55;;;;;;;11.70;9.00;;;2.80;99.90;;;;;;4824805;29;20473;-92
2020/12/26 09:19:23;;;;;;;10.57;7.50;;;3.00;99.90;;;;;;4822429;29;20838;-91
2020/12/26 09:21:48;;;;;;;13.13;9.23;;;3.20;99.90;;;;;;4821830;29;20479;-93
2020/12/26 09:24:19;;;;;;;11.13;8.90;;;3.50;99.90;;;;;;4823386;29;20487;-90
2020/12/26 09:26:45;;;;;;;11.77;8.33;;;3.50;99.90;;;;;;4821036;29;20244;-93
2020/12/26 09:29:21;;;;;;;15.00;10.07;;;3.50;99.90;;;;;;4822711;29;20455;-91
2020/12/26 09:31:47;;;;;;;14.10;8.13;;;3.20;99.90;;;;;;4822245;29;21076;-89
2020/12/26 09:34:21;;;;;;;16.67;9.90;;;3.10;99.90;;;;;;4819572;29;20472;-91
2020/12/26 09:37:07;;;;;;;9.00;7.93;;;3.20;99.90;;;;;;4827175;29;20504;-95
2020/12/26 09:39:34;;;;;;;13.43;8.90;;;3.30;99.90;;;;;;4824905;29;20545;-93
2020/12/26 09:42:00;;;;;;;13.40;9.10;;;3.40;99.90;;;;;;4825031;29;20460;-94
2020/12/26 09:44:25;;;;;;;11.30;8.90;;;3.30;99.90;;;;;;4826990;29;20492;-92
2020/12/26 09:47:02;;;;;;;10.50;9.17;;;3.30;99.90;;;;;;4821032;29;20210;-94
2020/12/26 09:49:28;;;;;;;11.33;8.57;;;3.40;99.90;;;;;;4823431;29;20235;-96
2020/12/26 09:51:57;;;;;;;11.17;8.90;;;3.30;99.90;;;;;;4823419;29;20458;-92
2020/12/26 09:54:22;;;;;;;12.10;9.10;;;3.30;99.90;;;;;;4823867;29;20474;-95
2020/12/26 09:56:53;;;;;;;11.03;8.40;;;3.20;99.90;;;;;;4827477;29;20956;-95
2020/12/26 09:59:20;;;;;;;10.00;7.67;;;3.30;99.90;;;;;;4827564;29;20216;-95
2020/12/26 10:01:47;;;;;;;8.23;6.40;;;3.70;99.90;;;;;;4827833;29;20464;-95
2020/12/26 10:04:13;;;;;;;10.37;7.93;;;4.00;99.90;;;;;;4828303;29;20421;-94
2020/12/26 10:06:46;;;;;;;8.87;7.50;;;4.30;99.90;;;;;;4821826;29;21545;-95
2020/12/26 10:09:15;;;;;;;8.83;7.73;;;4.30;99.90;;;;;;4849905;29;20286;-96
2020/12/26 10:11:41;;;;;;;11.53;7.10;;;4.70;99.90;;;;;;4832408;29;21420;-96
2020/12/26 10:14:08;;;;;;;11.20;7.43;;;5.20;99.90;;;;;;4838029;29;20452;-95
2020/12/26 10:16:35;;;;;;;11.67;7.03;;;5.00;99.90;;;;;;5766045;24;21582;-94
2020/12/26 10:19:03;;;;;;;8.00;6.87;;;5.30;99.90;;;;;;4844439;29;20467;-96
2020/12/26 10:21:29;;;;;;;7.83;6.63;;;5.10;99.90;;;;;;4840142;29;20458;-95
2020/12/26 10:23:55;;;;;;;9.27;6.00;;;6.00;99.90;;;;;;4838755;29;20479;-96
2020/12/26 10:26:27;;;;;;;6.83;5.97;;;6.70;99.90;;;;;;4841246;29;20199;-95
2020/12/26 10:28:53;;;;;;;8.40;5.60;;;7.10;99.90;;;;;;4839309;29;20243;-93
2020/12/26 10:31:18;;;;;;;8.13;5.83;;;8.00;98.30;;;;;;4847107;29;20474;-93
2020/12/26 10:33:44;;;;;;;6.80;5.13;;;8.10;96.10;;;;;;4847051;29;20197;-94
2020/12/26 10:36:10;;;;;;;6.13;5.53;;;8.20;96.40;;;;;;4848246;29;20213;-93
2020/12/26 10:38:36;;;;;;;5.50;4.90;;;8.40;96.60;;;;;;4858031;29;20873;-95
2020/12/26 10:41:05;;;;;;;7.87;5.50;;;8.50;94.70;;;;;;4845971;29;20542;-93
2020/12/26 10:43:30;;;;;;;5.57;4.80;;;8.70;94.80;;;;;;4834778;29;20234;-95
2020/12/26 10:48:35;;;;;;;4.60;4.20;;;7.10;95.30;;;;;;4855807;29;20249;-94
2020/12/26 10:51:01;;;;;;;6.77;4.33;;;6.50;96.90;;;;;;4862880;29;20481;-94
2020/12/26 10:53:27;;;;;;;5.97;4.83;;;6.00;97.90;;;;;;4845649;29;20465;-93
2020/12/26 10:55:58;;;;;;;6.67;3.73;;;5.00;99.00;;;;;;4850352;29;20469;-93
2020/12/26 10:58:28;;;;;;;5.80;5.20;;;4.40;99.90;;;;;;4850738;29;20468;-95
2020/12/26 11:00:55;;;;;;;6.10;5.10;;;4.70;99.90;;;;;;4857671;29;20459;-95
2020/12/26 11:03:20;;;;;;;5.87;4.37;;;4.90;99.90;;;;;;4862006;29;20471;-81
2020/12/26 11:05:49;;;;;;;6.30;4.43;;;4.80;99.90;;;;;;4853592;29;20558;-89
2020/12/26 11:08:18;;;;;;;4.90;4.40;;;4.60;99.90;;;;;;4840491;29;20202;-89
2020/12/26 11:10:44;;;;;;;6.70;4.20;;;4.60;99.90;;;;;;4839890;29;20815;-89
2020/12/26 11:13:10;;;;;;;5.40;4.90;;;5.00;99.90;;;;;;4839227;29;20462;-92
2020/12/26 11:15:36;;;;;;;6.20;4.43;;;5.00;99.90;;;;;;4838637;29;20940;-89
2020/12/26 11:18:03;;;;;;;5.73;4.60;;;5.70;99.80;;;;;;4839672;29;20566;-92
2020/12/26 11:20:31;;;;;;;5.93;4.70;;;5.60;98.90;;;;;;4840677;29;20267;-90
2020/12/26 11:23:03;;;;;;;4.60;3.87;;;7.10;98.80;;;;;;4859067;29;20478;-93
2020/12/26 11:25:30;;;;;;;6.10;4.13;;;8.10;94.30;;;;;;4847018;29;20481;-94
2020/12/26 11:27:56;;;;;;;5.10;4.23;;;7.90;93.90;;;;;;4844996;29;20475;-84
2020/12/26 11:30:22;;;;;;;6.00;4.50;;;7.50;94.30;;;;;;4844696;29;20463;-94
2020/12/26 11:32:48;;;;;;;5.87;4.50;;;7.50;93.90;;;;;;4860160;29;20208;-95
2020/12/26 11:35:13;;;;;;;6.73;4.20;;;7.90;94.10;;;;;;4845305;29;20377;-95
2020/12/26 11:37:40;;;;;;;7.37;4.27;;;7.80;93.40;;;;;;4842914;29;20660;-90
2020/12/26 11:40:06;;;;;;;5.00;3.60;;;6.30;94.20;;;;;;4841188;29;20202;-93
2020/12/26 11:42:31;;;;;;;5.83;4.60;;;5.80;97.20;;;;;;4849473;29;20484;-96
2020/12/26 11:44:57;;;;;;;9.43;4.70;;;5.50;97.90;;;;;;4846754;29;20214;-90
2020/12/26 11:47:23;;;;;;;5.70;4.63;;;5.20;98.30;;;;;;4839586;29;20214;-91
2020/12/26 11:49:50;;;;;;;5.50;4.63;;;5.00;99.00;;;;;;4842017;29;20960;-87
2020/12/26 11:52:16;;;;;;;6.10;5.00;;;5.00;99.90;;;;;;4845751;29;20214;-91
2020/12/26 11:54:41;;;;;;;7.10;5.40;;;5.20;99.70;;;;;;4837693;29;20474;-90
2020/12/26 11:57:07;;;;;;;6.37;5.17;;;5.20;99.90;;;;;;4838231;29;20239;-90
2020/12/26 11:59:34;;;;;;;6.57;4.60;;;5.40;99.70;;;;;;4841815;29;20730;-91
2020/12/26 12:02:00;;;;;;;5.47;4.70;;;4.90;99.60;;;;;;4837371;29;20218;-91
2020/12/26 12:04:26;;;;;;;5.10;4.60;;;4.90;99.90;;;;;;4838211;29;20496;-91
2020/12/26 12:06:52;;;;;;;7.60;5.03;;;4.90;99.90;;;;;;4838627;29;20203;-91
2020/12/26 12:09:18;;;;;;;8.10;6.50;;;5.20;99.90;;;;;;4841827;29;20511;-91
2020/12/26 12:11:43;;;;;;;7.43;5.73;;;5.70;99.90;;;;;;4840646;29;20550;-91
2020/12/26 12:14:10;;;;;;;6.47;5.50;;;6.00;99.60;;;;;;4853356;29;20201;-90
2020/12/26 12:16:35;;;;;;;6.43;5.07;;;6.00;99.10;;;;;;4840648;29;20589;-90
2020/12/26 12:19:01;;;;;;;7.30;5.53;;;5.90;98.70;;;;;;4826300;29;20463;-90
2020/12/26 12:21:27;;;;;;;8.00;5.73;;;6.00;99.00;;;;;;4854737;29;20757;-89
2020/12/26 12:23:53;;;;;;;10.33;5.83;;;6.00;98.60;;;;;;4836770;29;20318;-90
2020/12/26 12:26:25;;;;;;;6.30;5.70;;;6.00;98.50;;;;;;4840071;29;20724;-90
2020/12/26 12:28:54;;;;;;;5.70;5.10;;;6.10;98.70;;;;;;4839245;29;20196;-90
2020/12/26 12:31:24;;;;;;;7.70;5.30;;;6.50;98.10;;;;;;4853948;29;20480;-90
2020/12/26 12:33:51;;;;;;;6.20;5.30;;;7.30;96.70;;;;;;4839679;29;20497;-89
2020/12/26 12:36:17;;;;;;;5.13;4.40;;;7.70;95.00;;;;;;4842207;29;20498;-89
2020/12/26 12:38:43;;;;;;;5.33;4.17;;;7.20;94.50;;;;;;4839506;29;20473;-88
2020/12/26 12:41:09;;;;;;;6.90;5.00;;;6.90;94.90;;;;;;4843622;29;21014;-90
2020/12/26 12:43:35;;;;;;;4.20;3.87;;;6.40;95.80;;;;;;4842212;29;20316;-89
2020/12/26 12:46:02;;;;;;;7.97;4.70;;;5.70;96.30;;;;;;4843454;29;20247;-94
2020/12/26 12:48:38;;;;;;;7.20;5.00;;;5.70;97.40;;;;;;4860630;29;20547;-93
2020/12/26 12:51:10;;;;;;;4.60;4.10;;;5.70;96.90;;;;;;4843033;29;20567;-94
2020/12/26 12:53:38;;;;;;;5.60;4.17;;;5.80;97.40;;;;;;4843974;29;20446;-91
2020/12/26 12:56:04;;;;;;;7.77;5.20;;;6.40;96.70;;;;;;4846703;29;20463;-93
2020/12/26 12:58:30;;;;;;;7.40;4.97;;;6.90;95.70;;;;;;4847275;29;20682;-93
2020/12/26 13:01:00;;;;;;;6.90;4.13;;;7.40;94.10;;;;;;4846757;29;21157;-91
2020/12/26 13:03:47;;;;;;;5.40;3.97;;;7.40;93.50;;;;;;4847170;29;20317;-96
2020/12/26 13:06:26;;;;;;;8.40;4.80;;;7.60;93.00;;;;;;4844904;29;20450;-94
2020/12/26 13:08:52;;;;;;;6.50;4.90;;;8.00;93.10;;;;;;4849344;29;21097;-94
2020/12/26 13:11:18;;;;;;;5.30;4.30;;;7.90;92.00;;;;;;4847014;29;20459;-94
2020/12/26 13:13:44;;;;;;;5.13;4.63;;;8.60;91.80;;;;;;4845976;29;20210;-93
2020/12/26 13:16:10;;;;;;;6.53;5.10;;;9.40;89.00;;;;;;4845279;29;20198;-92
2020/12/26 13:18:37;;;;;;;5.40;4.53;;;10.60;80.60;;;;;;4844753;29;21344;-86
2020/12/26 13:21:03;;;;;;;5.20;4.70;;;10.60;75.50;;;;;;4848597;29;20482;-95
2020/12/26 13:23:28;;;;;;;4.53;4.13;;;8.80;81.30;;;;;;4847657;29;20882;-92
2020/12/26 13:25:54;;;;;;;5.67;4.13;;;7.40;89.60;;;;;;4845585;29;20633;-95
2020/12/26 13:28:20;;;;;;;7.13;5.00;;;6.70;93.20;;;;;;4845485;29;20252;-94
2020/12/26 13:30:45;;;;;;;7.20;4.90;;;6.00;94.90;;;;;;4852380;29;20205;-93
2020/12/26 13:33:13;;;;;;;8.93;4.63;;;5.80;96.30;;;;;;4843133;29;20634;-91
2020/12/26 13:35:39;;;;;;;7.23;4.90;;;5.80;97.10;;;;;;4841256;29;20220;-94
2020/12/26 13:38:04;;;;;;;7.00;5.03;;;5.90;96.90;;;;;;4845397;29;20454;-93
2020/12/26 13:40:30;;;;;;;6.30;4.80;;;6.40;96.60;;;;;;4845594;29;20199;-92
2020/12/26 13:42:57;;;;;;;5.83;4.83;;;6.50;95.80;;;;;;4842179;29;20215;-93
2020/12/26 13:45:23;;;;;;;5.53;4.07;;;6.00;95.90;;;;;;4842629;29;20468;-92
2020/12/26 13:47:58;;;;;;;8.37;4.10;;;5.50;96.10;;;;;;4995016;23;20464;-96
2020/12/26 13:50:27;;;;;;;7.17;3.30;;;5.30;95.90;;;;;;4844828;29;20199;-96
2020/12/26 13:52:53;;;;;;;3.73;3.00;;;5.10;95.70;;;;;;4835501;29;20514;-95
2020/12/26 13:55:19;;;;;;;3.90;3.17;;;5.00;95.60;;;;;;4823385;29;20453;-96
2020/12/26 13:57:44;;;;;;;3.20;2.90;;;4.80;95.20;;;;;;4859522;29;20463;-96
2020/12/26 14:00:10;;;;;;;6.70;3.10;;;4.70;95.50;;;;;;4843294;29;20191;-95
2020/12/26 14:02:36;;;;;;;5.63;3.17;;;4.40;96.10;;;;;;4837912;29;20206;-96
2020/12/26 14:05:02;;;;;;;3.83;2.80;;;4.20;96.70;;;;;;4848068;29;20207;-96
2020/12/26 14:07:35;;;;;;;3.30;2.97;;;4.20;96.40;;;;;;4838910;29;20298;-96
2020/12/26 14:10:04;;;;;;;7.50;3.30;;;4.20;96.40;;;;;;4842099;29;20459;-96
2020/12/26 14:12:50;;;;;;;4.20;3.37;;;4.30;96.70;;;;;;4844332;29;20464;-96
2020/12/26 14:15:15;;;;;;;6.00;3.20;;;4.30;96.50;;;;;;4832527;29;20513;-95